Terminal Aerodrome Forecast
Issued by NWS Grand Junction, CO

Home | Current Version | Previous Version | Text Only | Print | Product List | Glossary On
Versions: 1 2 3 4 5 6 7 8 9 10 11 12 13 14 15 16 17 18 19 20 21 22 23 24 25 26 27 28 29 30 31 32
000
FTUS45 KGJT 050542
TAFGJT
TAF
KGJT 050542Z 0506/0606 13014KT P6SM VCTS SCT080CB BKN140
     FM050630 VRB14G25KT 6SM -TSRA BKN070CB OVC100
     FM050800 17009KT P6SM VCSH SCT080 BKN150
     FM051200 14008KT P6SM SCT100 BKN150
     FM051800 19013KT P6SM SCT100
     FM052000 20010KT P6SM VCSH SCT090 BKN150
     FM060300 12009KT P6SM FEW090 SCT150=

USA.gov is the U.S. government's official web portal to all federal, state and local government web resources and services.